Time;durP1;ratioP1;P1;durP2;ratioP2;P2;SDS_P1;SDS_P2;PMS_P1;PMS_P2;Temp;Humidity;BMP_temperature;BMP_pressure;BME280_temperature;BME280_humidity;BME280_pressure;Samples;Min_cycle;Max_cycle;Signal;HPM_P1;HPM_P2
2021/08/14 00:02:14;;;;;;;18.55;10.98;;;;;;;14.97;73.93;100235.29;129712;1093;115051;-66
2021/08/14 00:04:43;;;;;;;18.63;11.13;;;;;;;14.97;73.89;100237.20;129745;1096;22571;-65
2021/08/14 00:07:31;;;;;;;26.40;11.33;;;;;;;14.95;73.79;100228.41;129807;1096;22586;-66
2021/08/14 00:10:01;;;;;;;24.28;10.95;;;;;;;14.94;73.77;100229.51;129604;1095;114016;-65
2021/08/14 00:12:29;;;;;;;20.55;10.25;;;;;;;14.93;73.76;100231.42;129724;1095;22577;-65
2021/08/14 00:15:18;;;;;;;23.75;10.38;;;;;;;14.92;73.76;100231.69;129642;1095;114353;-65
2021/08/14 00:17:47;;;;;;;16.30;10.28;;;;;;;14.91;74.05;100235.53;129782;1095;23488;-65
2021/08/14 00:20:18;;;;;;;18.50;9.60;;;;;;;14.89;73.65;100234.97;129598;1095;115093;-65
2021/08/14 00:23:07;;;;;;;18.60;9.17;;;;;;;14.89;73.59;100234.97;129752;1095;23315;-64
2021/08/14 00:25:35;;;;;;;26.08;10.55;;;;;;;14.86;73.67;100237.15;129790;1096;22573;-64
2021/08/14 00:28:04;;;;;;;29.18;11.10;;;;;;;14.83;73.71;100239.63;129659;1095;114387;-64
2021/08/14 00:30:33;;;;;;;19.55;9.58;;;;;;;14.80;73.43;100235.50;129745;1095;22542;-64
2021/08/14 00:33:03;;;;;;;22.95;9.48;;;;;;;14.78;73.50;100234.11;129626;1094;114470;-65
2021/08/14 00:35:33;;;;;;;19.35;10.98;;;;;;;14.75;73.86;100240.95;129750;1093;23348;-64
2021/08/14 00:38:02;;;;;;;26.68;10.30;;;;;;;14.73;73.77;100247.80;129668;1093;114619;-65
2021/08/14 00:40:44;;;;;;;23.08;11.15;;;;;;;14.69;73.96;100258.50;129824;1093;22554;-66
2021/08/14 00:43:13;;;;;;;24.55;11.08;;;;;;;14.69;74.14;100257.67;129773;1093;22571;-64
2021/08/14 00:45:43;;;;;;;26.60;10.55;;;;;;;14.66;74.21;100252.71;129655;1093;114457;-64
2021/08/14 00:48:32;;;;;;;25.68;10.50;;;;;;;14.64;74.36;100252.15;129793;1092;22596;-64
2021/08/14 00:51:01;;;;;;;25.78;11.23;;;;;;;14.62;74.37;100246.10;129667;1092;114442;-64
2021/08/14 00:53:29;;;;;;;25.28;10.55;;;;;;;14.59;74.50;100254.86;129794;1092;23138;-65
2021/08/14 00:55:58;;;;;;;18.70;9.50;;;;;;;14.55;74.24;100259.24;129724;1092;114500;-65
2021/08/14 00:58:29;;;;;;;24.80;10.38;;;;;;;14.53;74.32;100261.42;129765;1093;23579;-65
2021/08/14 01:00:59;;;;;;;20.13;11.20;;;;;;;14.50;74.73;100271.83;129812;1092;22559;-65
2021/08/14 01:03:28;;;;;;;22.33;10.40;;;;;;;14.49;74.65;100272.91;129706;1092;114350;-65
2021/08/14 01:05:58;;;;;;;20.95;10.75;;;;;;;14.46;75.07;100265.22;129761;1092;22571;-65
2021/08/14 01:08:27;;;;;;;22.10;10.03;;;;;;;14.45;74.62;100263.56;129679;1093;115968;-65
2021/08/14 01:10:56;;;;;;;21.10;11.03;;;;;;;14.43;75.01;100263.00;129866;1092;22549;-64
2021/08/14 01:13:44;;;;;;;23.00;11.00;;;;;;;14.40;74.86;100263.55;129778;1093;22577;-64
2021/08/14 01:16:13;;;;;;;29.18;10.63;;;;;;;14.39;74.77;100266.52;129685;1093;114992;-64
2021/08/14 01:18:43;;;;;;;25.95;11.15;;;;;;;14.36;75.00;100256.91;129829;1092;23399;-65
2021/08/14 01:21:18;;;;;;;18.05;10.63;;;;;;;14.36;75.19;100261.56;129693;1093;114166;-65
2021/08/14 01:23:48;;;;;;;22.90;10.90;;;;;;;14.36;75.33;100272.53;129782;1092;23032;-65
2021/08/14 01:26:17;;;;;;;20.78;10.15;;;;;;;14.33;74.98;100268.39;129757;1092;115522;-65
2021/08/14 01:28:46;;;;;;;21.13;9.67;;;;;;;14.30;75.12;100259.86;129819;1093;22557;-65
2021/08/14 01:31:16;;;;;;;17.60;8.93;;;;;;;14.26;75.01;100262.33;129818;1092;22554;-65
2021/08/14 01:33:45;;;;;;;20.55;10.58;;;;;;;14.24;75.59;100256.28;129654;1093;114238;-65
2021/08/14 01:36:16;;;;;;;23.28;9.73;;;;;;;14.22;75.39;100261.20;129737;1093;22571;-65
2021/08/14 01:38:57;;;;;;;20.90;9.70;;;;;;;14.20;75.55;100266.12;129665;1093;113981;-64
2021/08/14 01:41:26;;;;;;;14.45;8.95;;;;;;;14.20;75.54;100265.29;129825;1093;22551;-66
2021/08/14 01:44:03;;;;;;;23.63;8.98;;;;;;;14.20;75.58;100268.03;129708;1092;114958;-66
2021/08/14 01:46:39;;;;;;;16.03;8.68;;;;;;;14.18;75.87;100261.98;129807;1093;22535;-66
2021/08/14 01:49:08;;;;;;;18.63;9.38;;;;;;;14.17;75.65;100269.38;129827;1093;22536;-65
2021/08/14 01:51:38;;;;;;;17.70;9.18;;;;;;;14.16;75.84;100262.24;129704;1093;114149;-65
2021/08/14 01:54:07;;;;;;;13.88;9.18;;;;;;;14.14;75.68;100265.24;129766;1092;23446;-65
2021/08/14 01:56:35;;;;;;;17.95;8.98;;;;;;;14.15;75.81;100263.33;129708;1093;114285;-65
2021/08/14 01:59:04;;;;;;;29.18;10.40;;;;;;;14.16;76.19;100265.81;129779;1093;23289;-65
2021/08/14 02:01:33;;;;;;;21.15;9.53;;;;;;;14.16;76.18;100254.84;129799;1092;22570;-65
2021/08/14 02:04:04;;;;;;;16.73;9.73;;;;;;;14.18;75.88;100259.23;129725;1092;114098;-65
2021/08/14 02:06:32;;;;;;;18.75;9.08;;;;;;;14.17;75.35;100261.16;129778;1093;22540;-65
2021/08/14 02:09:01;;;;;;;19.40;9.28;;;;;;;14.16;75.73;100260.33;129694;1092;114156;-65
2021/08/14 02:11:50;;;;;;;17.85;8.80;;;;;;;14.16;75.71;100264.98;129831;1093;22524;-65
2021/08/14 02:14:19;;;;;;;18.28;8.88;;;;;;;14.14;75.59;100258.94;129692;1093;114913;-64
2021/08/14 02:16:48;;;;;;;20.20;8.80;;;;;;;14.14;75.67;100247.97;129812;1093;22564;-64
2021/08/14 02:19:19;;;;;;;32.35;10.90;;;;;;;14.12;75.90;100251.00;129839;1093;22523;-65
2021/08/14 02:21:47;;;;;;;30.13;9.80;;;;;;;14.13;75.33;100255.40;129688;1093;114894;-65
2021/08/14 02:24:19;;;;;;;28.93;11.03;;;;;;;14.12;75.61;100258.40;129803;1093;23108;-64
2021/08/14 02:26:48;;;;;;;35.05;15.00;;;;;;;14.11;75.78;100256.75;129689;1093;114110;-65
2021/08/14 02:29:17;;;;;;;31.58;15.48;;;;;;;14.10;75.84;100263.31;129844;1093;22509;-65
2021/08/14 02:31:49;;;;;;;43.73;24.75;;;;;;;14.09;75.76;100259.74;129778;1092;22581;-64
2021/08/14 02:34:18;;;;;;;51.50;32.40;;;;;;;14.09;76.00;100262.48;129696;1093;114049;-65
2021/08/14 02:36:47;;;;;;;60.50;38.00;;;;;;;14.09;75.63;100264.40;129831;1091;22531;-64
2021/08/14 02:39:16;;;;;;;61.13;47.80;;;;;;;14.09;75.71;100267.14;129731;1093;114330;-65
2021/08/14 02:41:45;;;;;;;72.20;55.53;;;;;;;14.10;76.01;100263.31;129824;1093;22591;-64
2021/08/14 02:44:15;;;;;;;60.98;50.13;;;;;;;14.09;75.93;100265.23;129685;1093;115352;-64
2021/08/14 02:46:43;;;;;;;59.85;44.83;;;;;;;14.09;75.86;100264.40;129814;1092;22553;-64
2021/08/14 02:49:13;;;;;;;51.15;41.48;;;;;;;14.08;75.88;100260.83;129788;1093;23291;-64
2021/08/14 02:52:02;;;;;;;52.05;35.70;;;;;;;14.08;75.74;100257.27;129733;1093;114144;-64
2021/08/14 02:54:31;;;;;;;36.70;26.88;;;;;;;14.09;75.87;100253.44;129778;1092;22551;-65
2021/08/14 02:56:59;;;;;;;28.68;21.45;;;;;;;14.09;76.08;100253.44;129676;1093;114328;-65
2021/08/14 02:59:31;;;;;;;27.78;19.60;;;;;;;14.08;75.73;100260.83;129840;1093;22604;-64
2021/08/14 03:01:59;;;;;;;26.90;18.05;;;;;;;14.11;76.00;100259.48;129673;1093;114531;-65
2021/08/14 03:04:31;;;;;;;26.58;16.68;;;;;;;14.13;76.05;100249.09;129845;1093;22601;-66
2021/08/14 03:06:59;;;;;;;24.00;16.53;;;;;;;14.14;75.99;100253.45;129818;1092;22573;-66
2021/08/14 03:09:28;;;;;;;24.65;15.50;;;;;;;14.15;76.27;100255.94;129725;1093;114092;-67
2021/08/14 03:12:17;;;;;;;18.25;13.88;;;;;;;14.16;76.03;100257.59;129827;1093;23115;-66
2021/08/14 03:14:46;;;;;;;17.68;14.20;;;;;;;14.19;75.96;100258.16;129730;1092;115594;-67
2021/08/14 03:17:15;;;;;;;19.68;12.83;;;;;;;14.19;76.23;100258.16;129801;1093;22567;-67
2021/08/14 03:19:44;;;;;;;23.70;13.20;;;;;;;14.20;76.03;100262.55;129789;1093;22537;-66
2021/08/14 03:22:13;;;;;;;20.40;11.90;;;;;;;14.22;76.55;100247.50;129710;1092;114057;-66
2021/08/14 03:25:03;;;;;;;20.33;11.95;;;;;;;14.26;76.71;100254.11;129792;1092;23420;-66
2021/08/14 03:27:33;;;;;;;19.03;10.23;;;;;;;14.33;76.64;100251.95;129682;1093;114680;-66
2021/08/14 03:30:01;;;;;;;31.05;11.23;;;;;;;14.40;76.65;100252.58;129839;1092;22589;-66
2021/08/14 03:32:32;;;;;;;19.28;11.75;;;;;;;14.52;77.13;100254.28;129724;1093;114486;-66
2021/08/14 03:35:00;;;;;;;20.48;11.35;;;;;;;14.64;76.69;100250.23;129788;1093;22571;-66
2021/08/14 03:37:29;;;;;;;18.53;11.35;;;;;;;14.75;76.46;100257.41;129845;1092;22543;-67
2021/08/14 03:39:58;;;;;;;16.15;12.10;;;;;;;14.83;76.14;100254.17;128101;1093;115183;-65
2021/08/14 03:42:47;;;;;;;20.63;11.13;;;;;;;14.94;76.18;100259.69;125183;1092;22803;-65
2021/08/14 03:45:17;;;;;;;18.03;11.33;;;;;;;15.03;76.00;100263.55;129680;1092;114781;-65
2021/08/14 03:47:46;;;;;;;21.58;11.18;;;;;;;15.10;76.17;100253.16;129804;1093;22568;-66
2021/08/14 03:50:15;;;;;;;18.60;11.90;;;;;;;15.18;76.12;100253.45;129703;1093;114567;-66
2021/08/14 03:52:44;;;;;;;21.03;12.20;;;;;;;15.26;76.00;100252.11;129828;1093;22580;-64
2021/08/14 03:55:26;;;;;;;24.28;13.00;;;;;;;15.36;75.61;100254.05;129809;1093;22563;-65
2021/08/14 03:57:54;;;;;;;20.18;13.80;;;;;;;15.44;75.64;100251.58;129736;1093;116162;-65
2021/08/14 04:00:23;;;;;;;24.60;14.78;;;;;;;15.53;75.47;100257.38;129789;1093;22508;-66
2021/08/14 04:02:55;;;;;;;21.88;14.60;;;;;;;15.62;75.54;100269.50;129346;1093;114565;-65
2021/08/14 04:05:25;;;;;;;18.95;13.15;;;;;;;15.70;75.11;100260.73;129785;1093;22599;-65
2021/08/14 04:07:54;;;;;;;16.80;12.10;;;;;;;15.80;74.67;100259.91;129740;1093;114494;-65
2021/08/14 04:10:23;;;;;;;23.05;12.30;;;;;;;15.87;74.21;100258.52;129784;1092;22562;-65
2021/08/14 04:12:53;;;;;;;53.65;14.13;;;;;;;15.97;73.75;100252.20;129878;1093;23139;-65
2021/08/14 04:15:23;;;;;;;25.25;12.85;;;;;;;16.07;73.38;100259.61;129733;1093;114395;-65
2021/08/14 04:17:52;;;;;;;43.08;13.00;;;;;;;16.18;72.82;100253.00;129833;1093;22599;-66
2021/08/14 04:20:29;;;;;;;30.63;13.00;;;;;;;16.28;72.50;100258.50;129713;1092;114847;-65
2021/08/14 04:22:59;;;;;;;49.55;13.43;;;;;;;16.39;72.24;100259.30;129419;1092;23335;-66
2021/08/14 04:25:28;;;;;;;41.08;11.93;;;;;;;16.49;71.98;100262.84;129793;1093;22534;-65
2021/08/14 04:27:58;;;;;;;26.30;12.13;;;;;;;16.61;72.03;100266.11;129732;1093;114681;-66
2021/08/14 04:30:27;;;;;;;27.53;12.15;;;;;;;16.71;71.63;100268.06;129827;1093;23502;-64
2021/08/14 04:32:56;;;;;;;26.20;12.23;;;;;;;16.82;71.48;100261.41;129708;1092;114752;-65
2021/08/14 04:35:25;;;;;;;19.55;11.05;;;;;;;16.93;71.34;100251.99;129808;1093;22569;-65
2021/08/14 04:37:55;;;;;;;30.53;11.58;;;;;;;17.03;70.81;100267.63;129727;1093;114428;-65
2021/08/14 04:40:25;;;;;;;26.10;11.85;;;;;;;17.14;70.78;100260.17;127199;1093;26246;-64
2021/08/14 04:42:54;;;;;;;26.63;11.70;;;;;;;17.22;70.67;100257.63;125165;1093;23315;-64
2021/08/14 04:45:24;;;;;;;31.23;11.25;;;;;;;17.31;70.51;100269.69;125092;1093;117203;-64
2021/08/14 04:48:01;;;;;;;28.78;11.48;;;;;;;17.42;69.61;100266.89;129790;1092;23715;-65
2021/08/14 04:50:30;;;;;;;26.50;10.90;;;;;;;17.53;68.80;100268.47;129720;1092;114691;-64
2021/08/14 04:52:59;;;;;;;34.20;11.23;;;;;;;17.68;68.37;100267.58;129836;1093;22569;-65
2021/08/14 04:55:28;;;;;;;39.15;12.10;;;;;;;17.89;67.84;100260.81;129746;1093;22545;-65
2021/08/14 04:57:57;;;;;;;22.70;10.40;;;;;;;18.18;67.33;100263.59;129698;1091;114792;-65
2021/08/14 05:00:26;;;;;;;25.40;11.20;;;;;;;18.55;66.28;100257.41;129837;1092;22528;-65
2021/08/14 05:02:55;;;;;;;23.23;9.93;;;;;;;18.94;65.56;100260.00;129652;1093;116206;-65
2021/08/14 05:05:24;;;;;;;16.90;9.20;;;;;;;19.37;64.57;100247.80;129827;1093;22572;-65
2021/08/14 05:07:54;;;;;;;21.63;9.48;;;;;;;19.85;63.48;100255.95;129697;1093;114644;-65
2021/08/14 05:10:23;;;;;;;22.15;10.55;;;;;;;20.29;62.23;100255.47;129796;1093;22575;-73
2021/08/14 05:12:52;;;;;;;24.43;10.58;;;;;;;20.70;61.25;100243.64;129776;1093;22619;-72
2021/08/14 05:15:26;;;;;;;29.65;12.03;;;;;;;21.13;59.94;100255.21;129696;1093;114767;-72
2021/08/14 05:17:55;;;;;;;46.25;12.30;;;;;;;21.47;59.09;100246.45;129746;1093;23019;-73
2021/08/14 05:20:24;;;;;;;21.85;9.53;;;;;;;21.80;58.00;100249.80;129712;1093;114826;-74
2021/08/14 05:23:13;;;;;;;21.85;10.18;;;;;;;22.14;57.10;100246.48;129836;1092;22710;-73
2021/08/14 05:25:59;;;;;;;21.87;10.43;;;;;;;22.44;56.33;100250.41;129661;1093;114421;-72
2021/08/14 05:28:30;;;;;;;15.13;8.80;;;;;;;22.68;55.71;100244.47;129792;1092;22591;-67
2021/08/14 05:30:59;;;;;;;18.70;8.13;;;;;;;22.94;54.52;100241.83;128524;1093;22815;-66
2021/08/14 05:33:28;;;;;;;17.48;9.30;;;;;;;23.22;53.89;100245.98;129560;1094;114220;-68
2021/08/14 05:35:58;;;;;;;20.93;9.98;;;;;;;23.52;53.32;100247.00;129791;1093;22640;-67
2021/08/14 05:38:26;;;;;;;20.35;9.25;;;;;;;23.79;52.74;100251.44;129692;1093;114340;-71
2021/08/14 05:41:10;;;;;;;26.83;9.33;;;;;;;24.04;52.32;100250.59;129814;1093;22549;-68
2021/08/14 05:43:39;;;;;;;22.70;9.88;;;;;;;24.26;52.13;100246.79;129793;1093;22600;-69
2021/08/14 05:46:28;;;;;;;23.60;12.15;;;;;;;24.49;51.64;100247.39;129659;1092;114008;-69
2021/08/14 05:48:57;;;;;;;19.13;8.95;;;;;;;24.63;50.67;100253.57;129764;1092;23643;-68
2021/08/14 05:51:26;;;;;;;16.28;6.93;;;;;;;24.70;49.18;100253.85;129675;1092;114429;-68
2021/08/14 05:54:16;;;;;;;11.20;5.45;;;;;;;24.66;47.69;100244.55;129797;1092;22561;-73
2021/08/14 05:56:46;;;;;;;11.30;4.58;;;;;;;24.66;47.55;100255.70;126028;1093;114195;-69
2021/08/14 05:59:16;;;;;;;7.85;5.35;;;;;;;24.57;47.16;100249.31;125200;1093;25381;-68
2021/08/14 06:01:45;;;;;;;9.57;5.60;;;;;;;24.49;46.87;100250.18;125220;1093;26565;-68
2021/08/14 06:04:16;;;;;;;11.20;5.20;;;;;;;24.36;47.40;100251.20;129744;1092;113942;-71
2021/08/14 06:06:45;;;;;;;12.33;5.25;;;;;;;24.26;47.23;100253.18;129762;1092;22542;-71
2021/08/14 06:09:14;;;;;;;8.15;4.75;;;;;;;24.18;47.45;100256.78;129681;1093;114240;-73
2021/08/14 06:11:45;;;;;;;9.30;4.50;;;;;;;24.08;46.64;100253.54;129808;1091;22535;-70
2021/08/14 06:14:15;;;;;;;10.90;4.68;;;;;;;23.93;46.89;100261.25;129689;1093;113903;-71
2021/08/14 06:16:44;;;;;;;9.25;4.73;;;;;;;23.82;46.76;100262.71;129803;1093;22575;-70
2021/08/14 06:19:13;;;;;;;8.20;4.45;;;;;;;23.70;47.21;100254.20;129830;1093;22606;-69
2021/08/14 06:21:42;;;;;;;7.75;4.85;;;;;;;23.63;47.50;100258.64;129573;1093;114336;-70
2021/08/14 06:25:55;;;;;;;6.83;4.20;;;;;;;23.56;47.53;100256.34;125380;1093;22856;-70
2021/08/14 06:28:24;;;;;;;7.70;4.55;;;;;;;23.53;47.21;100260.58;124976;1093;114371;-73
2021/08/14 06:30:53;;;;;;;8.00;4.35;;;;;;;23.49;47.24;100255.98;125038;1093;26856;-69
2021/08/14 06:33:22;;;;;;;6.25;4.03;;;;;;;23.47;47.69;100256.31;125083;1091;113694;-70
2021/08/14 06:35:51;;;;;;;5.48;3.85;;;;;;;23.46;46.84;100260.23;129688;1093;22710;-69
2021/08/14 06:38:20;;;;;;;16.68;5.60;;;;;;;23.43;46.72;100255.31;129664;1093;113578;-68
2021/08/14 06:40:49;;;;;;;7.63;4.18;;;;;;;23.41;46.55;100265.13;126413;1093;22935;-69
2021/08/14 06:43:18;;;;;;;7.08;3.73;;;;;;;23.36;46.59;100255.00;125134;1093;24656;-65
2021/08/14 06:45:47;;;;;;;9.75;4.85;;;;;;;23.35;46.89;100260.88;129662;1092;114212;-64
2021/08/14 06:48:16;;;;;;;5.68;3.55;;;;;;;23.32;46.22;100256.78;129766;1093;22552;-65
2021/08/14 06:50:45;;;;;;;11.45;4.03;;;;;;;23.32;46.06;100256.78;129673;1093;114098;-64
2021/08/14 06:53:17;;;;;;;8.83;3.95;;;;;;;23.30;46.14;100256.28;129847;1092;23322;-64
2021/08/14 06:55:46;;;;;;;8.28;4.60;;;;;;;23.30;46.61;100255.47;129768;1092;22545;-65
2021/08/14 06:58:15;;;;;;;7.28;3.90;;;;;;;23.30;46.08;100261.03;129682;1092;113758;-64
2021/08/14 07:00:44;;;;;;;5.70;3.80;;;;;;;23.28;45.92;100253.83;129768;1094;23678;-65
2021/08/14 07:03:13;;;;;;;15.05;4.05;;;;;;;23.27;46.00;100252.19;129709;1093;113789;-65
2021/08/14 07:05:42;;;;;;;10.13;3.80;;;;;;;23.27;45.88;100251.37;129799;1092;22628;-64
2021/08/14 07:08:11;;;;;;;5.43;3.95;;;;;;;23.30;45.56;100258.24;129676;1093;114017;-65
2021/08/14 07:11:00;;;;;;;5.45;4.03;;;;;;;23.30;45.96;100247.94;129811;1093;22551;-65
2021/08/14 07:13:28;;;;;;;6.25;3.70;;;;;;;23.33;45.73;100250.08;129804;1093;22954;-66
2021/08/14 07:16:00;;;;;;;5.90;3.55;;;;;;;23.36;46.36;100248.62;129715;1092;113597;-65
2021/08/14 07:18:49;;;;;;;6.40;3.93;;;;;;;23.40;45.98;100244.02;129816;1093;22576;-65
2021/08/14 07:21:18;;;;;;;6.75;3.80;;;;;;;23.40;45.93;100247.62;129706;1093;114029;-65
2021/08/14 07:23:47;;;;;;;4.88;3.28;;;;;;;23.43;45.97;100241.41;129841;1093;22677;-65
2021/08/14 07:26:16;;;;;;;19.23;5.65;;;;;;;23.48;45.77;100240.44;129646;1093;114263;-64
2021/08/14 07:28:45;;;;;;;7.55;4.15;;;;;;;23.51;45.41;100243.43;129806;1092;22596;-65
2021/08/14 07:31:14;;;;;;;6.65;3.50;;;;;;;23.55;44.84;100241.61;129816;1093;23798;-64
2021/08/14 07:33:43;;;;;;;4.95;3.40;;;;;;;23.59;45.31;100237.03;129697;1092;113792;-65
2021/08/14 07:36:12;;;;;;;5.20;3.60;;;;;;;23.66;45.19;100235.73;129788;1093;23379;-65
2021/08/14 07:38:41;;;;;;;4.90;3.40;;;;;;;23.70;44.75;100229.16;129668;1093;114420;-65
2021/08/14 07:41:09;;;;;;;9.18;3.83;;;;;;;23.72;44.36;100229.66;129772;1092;22549;-66
2021/08/14 07:43:39;;;;;;;6.53;3.48;;;;;;;23.74;45.07;100234.91;129798;1092;22680;-65
2021/08/14 07:46:09;;;;;;;5.58;3.60;;;;;;;23.77;44.33;100221.16;129717;1092;113901;-65
2021/08/14 07:48:38;;;;;;;5.33;3.55;;;;;;;23.79;44.04;100223.61;129796;1092;22547;-64
2021/08/14 07:51:07;;;;;;;4.55;3.38;;;;;;;23.81;43.83;100221.29;129675;1092;114142;-66
2021/08/14 07:53:36;;;;;;;3.83;3.10;;;;;;;23.82;43.33;100220.97;129816;1092;22615;-65
2021/08/14 07:56:05;;;;;;;3.87;2.90;;;;;;;23.83;43.98;100213.44;129704;1093;114009;-65
2021/08/14 07:58:34;;;;;;;8.35;3.48;;;;;;;23.85;43.35;100227.84;129747;1094;22562;-65
2021/08/14 08:01:03;;;;;;;7.35;3.33;;;;;;;23.85;42.48;100225.88;129777;1093;23414;-65
2021/08/14 08:03:32;;;;;;;4.33;3.80;;;;;;;23.83;42.04;100207.88;129661;1092;113677;-65
2021/08/14 08:06:03;;;;;;;5.55;3.10;;;;;;;23.81;42.88;100205.41;129767;1094;22575;-65
2021/08/14 08:08:34;;;;;;;5.30;2.98;;;;;;;23.84;43.13;100213.11;129748;1093;113788;-65
2021/08/14 08:11:03;;;;;;;5.58;2.83;;;;;;;23.88;41.66;100208.53;129785;1092;22641;-65
2021/08/14 08:13:33;;;;;;;5.25;3.20;;;;;;;23.92;42.92;100215.08;129823;1093;22754;-64
2021/08/14 08:16:01;;;;;;;5.23;3.18;;;;;;;23.96;41.88;100212.43;129699;1092;113847;-64
2021/08/14 08:18:30;;;;;;;3.40;2.83;;;;;;;23.99;41.46;100214.56;129776;1093;22535;-65
2021/08/14 08:20:59;;;;;;;3.90;2.78;;;;;;;24.01;41.18;100215.05;129660;1093;114018;-66
2021/08/14 08:23:28;;;;;;;5.80;3.90;;;;;;;24.03;40.79;100211.94;129815;1093;22528;-64
2021/08/14 08:25:57;;;;;;;6.73;3.75;;;;;;;24.06;40.98;100214.06;129737;1093;22623;-65
2021/08/14 08:28:26;;;;;;;7.80;3.70;;;;;;;24.07;41.95;100208.17;129706;1093;113535;-65
2021/08/14 08:30:55;;;;;;;18.23;4.15;;;;;;;24.11;42.26;100211.91;129811;1092;22935;-65
2021/08/14 08:33:24;;;;;;;5.00;3.60;;;;;;;24.15;42.73;100207.31;129683;1093;114214;-65
2021/08/14 08:35:53;;;;;;;8.10;3.88;;;;;;;24.20;43.39;100200.77;129777;1093;22600;-65
2021/08/14 08:38:22;;;;;;;14.73;4.33;;;;;;;24.25;43.31;100198.63;129723;1093;115049;-64
2021/08/14 08:40:51;;;;;;;7.70;3.68;;;;;;;24.30;43.41;100198.45;129798;1093;22579;-65
2021/08/14 08:43:20;;;;;;;6.85;3.83;;;;;;;24.35;42.75;100197.47;129758;1093;22567;-66
2021/08/14 08:45:50;;;;;;;7.53;3.15;;;;;;;24.38;42.50;100204.34;129692;1093;113821;-66
2021/08/14 08:48:19;;;;;;;7.15;2.93;;;;;;;24.43;41.42;100193.00;129783;1093;22565;-64
2021/08/14 08:50:48;;;;;;;5.93;3.25;;;;;;;24.48;40.93;100195.61;129667;1092;114275;-65
2021/08/14 08:53:17;;;;;;;4.13;3.10;;;;;;;24.51;41.66;100192.98;129816;1093;22501;-65
2021/08/14 08:55:46;;;;;;;4.53;3.20;;;;;;;24.56;41.32;100191.95;129781;1092;23410;-65
2021/08/14 08:58:15;;;;;;;6.95;3.00;;;;;;;24.58;40.84;100187.69;129684;1093;114447;-65
2021/08/14 09:00:44;;;;;;;5.95;3.20;;;;;;;24.63;40.83;100193.08;129820;1093;22567;-64
2021/08/14 09:03:14;;;;;;;9.08;2.78;;;;;;;24.66;40.88;100186.03;129712;1093;114397;-65
2021/08/14 09:05:46;;;;;;;16.05;4.13;;;;;;;24.69;40.82;100188.12;129812;1093;22722;-66
2021/08/14 09:08:17;;;;;;;4.85;2.93;;;;;;;24.73;40.17;100180.73;129688;1092;114021;-65
2021/08/14 09:11:09;;;;;;;5.90;3.28;;;;;;;24.75;39.84;100186.78;129777;1093;22560;-65
2021/08/14 09:13:41;;;;;;;3.98;3.05;;;;;;;24.77;39.62;100186.45;129791;1092;22545;-64
2021/08/14 09:16:24;;;;;;;4.83;3.33;;;;;;;24.75;38.88;100184.00;129704;1093;113796;-65
2021/08/14 09:18:59;;;;;;;5.68;2.70;;;;;;;24.71;38.08;100194.17;129788;1093;22586;-65
2021/08/14 09:21:44;;;;;;;5.13;3.05;;;;;;;24.64;38.48;100183.57;129680;1093;114056;-65
2021/08/14 09:24:32;;;;;;;4.60;3.43;;;;;;;24.58;38.26;100184.90;129786;1093;22618;-64
2021/08/14 09:27:01;;;;;;;7.05;2.98;;;;;;;24.55;39.12;100191.14;129628;1093;113933;-65
2021/08/14 09:29:35;;;;;;;9.28;3.33;;;;;;;24.55;39.26;100171.63;129788;1092;22586;-65
2021/08/14 09:32:09;;;;;;;4.93;3.78;;;;;;;24.56;38.58;100175.23;129710;1093;113897;-65
2021/08/14 09:34:49;;;;;;;8.93;3.33;;;;;;;24.57;38.74;100169.33;129786;1093;22560;-65
2021/08/14 09:37:25;;;;;;;3.70;2.70;;;;;;;24.57;38.99;100169.33;129791;1092;22565;-66
2021/08/14 09:40:00;;;;;;;9.45;3.33;;;;;;;24.60;38.34;100170.63;129680;1093;114157;-66
2021/08/14 09:42:30;;;;;;;8.83;3.68;;;;;;;24.60;39.82;100167.84;129801;1092;22668;-66
2021/08/14 09:45:15;;;;;;;4.35;3.28;;;;;;;24.64;39.52;100160.45;129689;1092;113639;-66
2021/08/14 09:47:46;;;;;;;4.93;3.30;;;;;;;24.67;38.82;100165.37;129812;1093;22646;-65
2021/08/14 09:50:15;;;;;;;4.53;3.23;;;;;;;24.67;38.31;100160.58;129710;1093;114164;-65
2021/08/14 09:52:51;;;;;;;5.80;3.40;;;;;;;24.67;38.80;100154.22;129750;1093;22545;-66
2021/08/14 09:55:23;;;;;;;6.78;3.60;;;;;;;24.66;38.69;100150.62;129808;1093;22576;-65
2021/08/14 09:57:59;;;;;;;4.28;2.85;;;;;;;24.71;38.16;100148.77;129703;1092;113766;-65
2021/08/14 10:00:31;;;;;;;5.53;3.48;;;;;;;24.69;38.06;100149.09;129803;1092;22548;-64
2021/08/14 10:03:01;;;;;;;17.55;5.88;;;;;;;24.68;39.30;100147.47;129645;1093;113791;-64
2021/08/14 10:05:33;;;;;;;18.00;5.48;;;;;;;24.67;39.76;100148.64;129826;1092;22558;-66
2021/08/14 10:08:03;;;;;;;13.90;4.80;;;;;;;24.74;38.95;100142.52;129810;1093;22620;-65
2021/08/14 10:10:32;;;;;;;6.20;3.33;;;;;;;24.78;39.34;100143.48;129702;1092;116383;-64
2021/08/14 10:13:01;;;;;;;5.83;3.55;;;;;;;24.82;39.96;100136.06;129781;1092;22604;-64
2021/08/14 10:15:32;;;;;;;7.58;3.48;;;;;;;24.87;40.19;100135.88;129718;1092;114178;-64
2021/08/14 10:18:09;;;;;;;10.50;3.43;;;;;;;24.92;39.73;100133.72;129748;1093;22576;-65
2021/08/14 10:20:38;;;;;;;3.95;2.93;;;;;;;24.96;38.73;100128.29;129696;1093;114520;-64
2021/08/14 10:23:09;;;;;;;7.05;3.95;;;;;;;24.99;39.05;100122.86;129828;1093;22516;-64
2021/08/14 10:25:41;;;;;;;6.03;2.90;;;;;;;25.02;38.30;100124.16;129755;1093;22565;-64
2021/08/14 10:28:10;;;;;;;5.55;3.65;;;;;;;25.02;38.62;100115.79;129649;1092;114491;-65
2021/08/14 10:30:49;;;;;;;3.38;3.08;;;;;;;25.01;38.47;100116.95;129801;1092;22586;-65
2021/08/14 10:33:28;;;;;;;11.25;3.83;;;;;;;25.03;39.71;100106.27;129702;1093;113827;-65
2021/08/14 10:36:23;;;;;;;9.45;3.80;;;;;;;25.07;40.70;100112.81;129752;1092;23454;-64
2021/08/14 10:38:57;;;;;;;7.43;3.48;;;;;;;25.13;40.03;100110.61;129698;1093;114425;-65
2021/08/14 10:41:44;;;;;;;7.83;3.70;;;;;;;25.18;40.23;100110.41;129800;1092;22531;-66
2021/08/14 10:44:14;;;;;;;4.28;3.58;;;;;;;25.22;39.31;100100.22;129665;1093;113937;-66
2021/08/14 10:46:51;;;;;;;13.38;3.28;;;;;;;25.28;38.11;100101.63;129755;1093;22670;-65
2021/08/14 10:49:34;;;;;;;4.70;3.45;;;;;;;25.30;38.37;100105.70;129844;1093;22606;-66
2021/08/14 10:52:03;;;;;;;6.83;3.20;;;;;;;25.33;37.56;100109.79;129654;1093;114104;-66
2021/08/14 10:54:55;;;;;;;4.23;3.33;;;;;;;25.33;38.03;100101.42;129803;1093;22630;-66
2021/08/14 10:57:44;;;;;;;7.35;2.93;;;;;;;25.32;37.51;100097.81;129734;1093;113344;-65
2021/08/14 11:00:24;;;;;;;9.53;3.10;;;;;;;25.35;37.89;100104.69;129786;1093;22565;-66
2021/08/14 11:03:03;;;;;;;5.38;3.30;;;;;;;25.37;37.10;100107.95;129667;1092;115258;-66
2021/08/14 11:05:33;;;;;;;8.48;3.53;;;;;;;25.36;37.33;100101.56;129780;1093;23106;-66
2021/08/14 11:08:21;;;;;;;5.58;3.40;;;;;;;25.37;37.25;100099.59;129834;1093;22881;-64
2021/08/14 11:10:50;;;;;;;3.38;2.65;;;;;;;25.38;36.80;100090.06;129636;1093;113778;-65
2021/08/14 11:13:31;;;;;;;9.35;3.20;;;;;;;25.38;36.75;100094.83;129748;1093;22643;-65
2021/08/14 11:16:00;;;;;;;5.90;3.03;;;;;;;25.38;36.63;100092.85;129694;1093;113928;-65
2021/08/14 11:18:57;;;;;;;4.55;3.03;;;;;;;25.39;36.26;100083.33;129782;1093;22523;-65
2021/08/14 11:21:42;;;;;;;4.73;2.93;;;;;;;25.44;36.69;100082.27;129681;1092;114878;-64
2021/08/14 11:24:37;;;;;;;4.43;2.78;;;;;;;25.48;36.89;100083.23;129830;1093;22580;-66
2021/08/14 11:27:18;;;;;;;5.30;3.33;;;;;;;25.51;38.21;100080.57;129677;1093;114390;-65
2021/08/14 11:30:06;;;;;;;6.93;3.10;;;;;;;25.56;38.26;100074.75;129833;1093;22546;-65
2021/08/14 11:32:35;;;;;;;5.58;2.90;;;;;;;25.60;38.35;100077.67;129671;1093;114039;-64